This is the latest recevied weather packets stored in our database for station/object IV3CGM-13. If no packets are shown the sender has not sent any weather packets the latest 10 day(s).
| Time | Temp. | Humidity | Pressure | Rain* | Wind** | Luminosity | Snow |
|---|---|---|---|---|---|---|---|
| 1777319583 | 16.67° C | 61% | 1016.5 hPa | 0 mm | - | 0 W/m² | - |
| 1777318882 | 15.56° C | 63% | 1016.5 hPa | 0 mm | - | 0 W/m² | - |
| 1777318194 | 15.56° C | 64% | 1016.5 hPa | 0 mm | - | 0 W/m² | - |
| 1777317507 | 15.56° C | 63% | 1016.5 hPa | 0 mm | - | 0 W/m² | - |
| 1777316819 | 15.56° C | 62% | 1016.3 hPa | 0 mm | - | 0 W/m² | - |
| 1777316083 | 16.11° C | 59% | 1016.2 hPa | 0 mm | - | 0 W/m² | - |
| 1777315381 | 16.11° C | 62% | 1016.2 hPa | 0 mm | - | 0 W/m² | - |
| 1777314694 | 16.11° C | 63% | 1016.2 hPa | 0 mm | - | 0 W/m² | - |
| 1777314006 | 16.67° C | 61% | 1016.1 hPa | 0 mm | - | 1 W/m² | - |
| 1777313319 | 16.67° C | 60% | 1016.1 hPa | 0 mm | - | 4 W/m² | - |
| 1777312582 | 17.22° C | 58% | 1016 hPa | 0 mm | - | 12 W/m² | - |
| 1777311881 | 17.22° C | 58% | 1015.9 hPa | 0 mm | - | 23 W/m² | - |
| 1777311194 | 17.22° C | 58% | 1015.8 hPa | 0 mm | - | 27 W/m² | - |
| 1777310506 | 17.78° C | 56% | 1015.8 hPa | 0 mm | - | 35 W/m² | - |
| 1777309818 | 18.33° C | 56% | 1015.8 hPa | 0 mm | - | 42 W/m² | - |
| 1777309082 | 18.89° C | 53% | 1015.6 hPa | 0 mm | - | 53 W/m² | - |
| 1777308381 | 20° C | 42% | 1015.5 hPa | 0 mm | - | 83 W/m² | - |
| 1777307694 | 19.44° C | 52% | 1015.5 hPa | 0 mm | - | 160 W/m² | - |
| 1777307006 | 19.44° C | 51% | 1015.5 hPa | 0 mm | - | 146 W/m² | - |
| 1777306318 | 20° C | 54% | 1015.7 hPa | 0 mm | - | 87 W/m² | - |
| 1777305581 | 21.67° C | 47% | 1015.8 hPa | 0 mm | - | 183 W/m² | - |
| 1777304881 | 21.11° C | 52% | 1015.8 hPa | 0 mm | - | 171 W/m² | - |
| 1777304193 | 22.22° C | 42% | 1015.8 hPa | 0 mm | - | 261 W/m² | - |
| 1777303506 | 22.22° C | 36% | 1015.9 hPa | 0 mm | - | 308 W/m² | - |
| 1777302818 | 22.78° C | 34% | 1015.9 hPa | 0 mm | - | 356 W/m² | - |
* Rain latest hour (hover to see other rain measurements)
** Current wind speed in m/s (hover to see current wind gust speed)